Wirt, Minnesota
Current Conditions -  °F | °C
As of 6:13 AM on Sunday 25 Jan 2015 (Local Time) from KFOZ Reporting Station
Overcast Overcast  
Wind Chill: 12°   Ceiling: 2000
Heat Index: 12°   Visibility: 10mi
Dew Point:   Wind: 3mph
Humidity: 73%   Direction: 30°NNE
Pressure: 29.96"   Gusts: NA
Location:  47.73°N, 93.96°W
Report Text: KFOZ 251213Z AUTO 03003KT 10SM OVC020 M11/M15 A2996 RMK AO2
Loading
Personal Weather Stations






























Interactive Weather Map New forecast layout! Learn more

10-Day Weather Forecast

Advertisements
Track Severe Weather on mobile